createdAt,value
2019-01-02T00:00:39.680Z,4.88
2019-01-02T00:01:39.789Z,4.90
2019-01-02T00:02:39.727Z,4.87
2019-01-02T00:03:39.665Z,4.88
2019-01-02T00:04:39.673Z,4.88
2019-01-02T00:05:39.644Z,4.91
2019-01-02T00:06:39.747Z,4.84
2019-01-02T00:07:39.604Z,4.83
2019-01-02T00:08:39.596Z,4.91
2019-01-02T00:09:39.612Z,4.88
2019-01-02T00:10:39.773Z,4.88
2019-01-02T00:11:39.651Z,4.79
2019-01-02T00:12:39.647Z,4.84
2019-01-02T00:13:39.546Z,4.90
2019-01-02T00:14:39.528Z,4.86
2019-01-02T00:15:39.580Z,4.91
2019-01-02T00:16:39.511Z,4.84
2019-01-02T00:17:39.511Z,4.86
2019-01-02T00:18:39.499Z,4.83
2019-01-02T00:19:39.481Z,4.74
2019-01-02T00:20:39.541Z,4.74
2019-01-02T00:21:39.462Z,4.71
2019-01-02T00:22:39.473Z,4.71
2019-01-02T00:23:39.434Z,4.68
2019-01-02T00:24:39.430Z,4.72
2019-01-02T00:25:39.548Z,4.71
2019-01-02T00:26:39.418Z,4.72
2019-01-02T00:27:39.454Z,4.77
2019-01-02T00:28:39.382Z,4.65
2019-01-02T00:29:39.422Z,4.75
2019-01-02T00:30:39.393Z,4.75
2019-01-02T00:31:39.352Z,4.72
2019-01-02T00:32:39.414Z,4.65
2019-01-02T00:33:39.468Z,4.67
2019-01-02T00:34:39.346Z,4.65
2019-01-02T00:35:39.317Z,4.67
2019-01-02T00:36:39.348Z,4.74
2019-01-02T00:37:39.341Z,4.72
2019-01-02T00:38:39.291Z,4.68
2019-01-02T00:39:39.345Z,4.72
2019-01-02T00:40:39.269Z,4.71
2019-01-02T00:41:39.254Z,4.74
2019-01-02T00:42:39.266Z,4.80
2019-01-02T00:43:39.440Z,4.68
2019-01-02T00:44:39.219Z,4.84
2019-01-02T00:45:39.213Z,4.71
2019-01-02T00:46:39.213Z,4.77
2019-01-02T00:47:39.230Z,4.86
2019-01-02T00:48:39.237Z,4.83
2019-01-02T00:49:39.165Z,4.83
2019-01-02T00:50:39.164Z,4.84
2019-01-02T00:51:39.141Z,4.91
2019-01-02T00:52:39.174Z,4.88
2019-01-02T00:53:39.125Z,4.94
2019-01-02T00:54:39.210Z,4.93
2019-01-02T00:55:39.167Z,4.90
2019-01-02T00:56:39.094Z,4.88
2019-01-02T00:57:39.190Z,4.88
2019-01-02T00:58:39.204Z,4.83
2019-01-02T00:59:39.069Z,4.91
2019-01-02T01:00:39.045Z,4.87
2019-01-02T01:01:39.035Z,4.90
2019-01-02T01:02:39.142Z,4.88
2019-01-02T01:03:39.017Z,4.88
2019-01-02T01:04:39.009Z,4.79
2019-01-02T01:05:38.998Z,4.84
2019-01-02T01:06:38.992Z,4.71
2019-01-02T01:07:39.000Z,4.87
2019-01-02T01:08:39.007Z,4.83
2019-01-02T01:09:38.955Z,4.86
2019-01-02T01:10:38.939Z,4.77
2019-01-02T01:11:38.963Z,4.72
2019-01-02T01:12:38.943Z,4.83
2019-01-02T01:13:38.908Z,4.67
2019-01-02T01:14:38.962Z,4.79
2019-01-02T01:15:38.895Z,4.79
2019-01-02T01:16:38.875Z,4.77
2019-01-02T01:17:38.900Z,4.75
2019-01-02T01:18:38.856Z,4.77
2019-01-02T01:19:38.850Z,4.79
2019-01-02T01:20:38.872Z,4.80
2019-01-02T01:21:38.847Z,4.86
2019-01-02T01:22:38.890Z,4.74
2019-01-02T01:23:38.824Z,4.72
2019-01-02T01:24:38.828Z,4.83
2019-01-02T01:25:38.783Z,4.86
2019-01-02T01:26:38.836Z,4.84
2019-01-02T01:27:38.772Z,4.84
2019-01-02T01:28:38.783Z,4.75
2019-01-02T01:29:38.836Z,4.86
2019-01-02T01:30:38.725Z,4.77
2019-01-02T01:31:38.721Z,4.75
2019-01-02T01:32:38.706Z,4.77
2019-01-02T01:33:38.699Z,4.83
2019-01-02T01:34:38.748Z,4.90
2019-01-02T01:35:38.682Z,4.90
2019-01-02T01:36:38.666Z,4.87
2019-01-02T01:37:38.657Z,4.77
2019-01-02T01:38:38.717Z,4.84
2019-01-02T01:39:38.657Z,4.74
2019-01-02T01:40:38.627Z,4.77
2019-01-02T01:41:38.643Z,4.77
2019-01-02T01:42:38.625Z,4.80
2019-01-02T01:43:38.635Z,4.75
2019-01-02T01:44:38.619Z,4.74
2019-01-02T01:45:38.574Z,4.87
2019-01-02T01:46:38.595Z,4.84
2019-01-02T01:47:38.547Z,4.75
2019-01-02T01:48:38.537Z,4.83
2019-01-02T01:49:38.565Z,4.83
2019-01-02T01:50:38.535Z,4.74
2019-01-02T01:51:38.532Z,4.84
2019-01-02T01:52:38.494Z,4.83
2019-01-02T01:53:38.493Z,4.80
2019-01-02T01:54:38.470Z,4.84
2019-01-02T01:55:38.605Z,4.86
2019-01-02T01:56:38.448Z,4.77
2019-01-02T01:57:38.446Z,4.84
2019-01-02T01:58:38.471Z,4.71
2019-01-02T01:59:38.442Z,4.77
2019-01-02T02:00:38.419Z,4.77
2019-01-02T02:01:38.413Z,4.80
2019-01-02T02:02:38.391Z,4.79
2019-01-02T02:03:38.419Z,4.86
2019-01-02T02:04:38.387Z,4.77
2019-01-02T02:05:38.397Z,4.94
2019-01-02T02:06:38.409Z,4.91
2019-01-02T02:07:38.338Z,4.88
2019-01-02T02:08:38.324Z,4.88
2019-01-02T02:09:38.374Z,4.87
2019-01-02T02:10:38.325Z,4.87
2019-01-02T02:11:38.301Z,4.88
2019-01-02T02:12:38.280Z,4.90
2019-01-02T02:13:38.271Z,4.83
2019-01-02T02:14:38.283Z,4.88
2019-01-02T02:15:38.262Z,4.90
2019-01-02T02:16:38.240Z,4.91
2019-01-02T02:17:38.287Z,4.91
2019-01-02T02:18:38.228Z,4.75
2019-01-02T02:19:38.251Z,4.86
2019-01-02T02:20:38.201Z,4.80
2019-01-02T02:21:38.210Z,4.79
2019-01-02T02:22:38.174Z,4.80
2019-01-02T02:23:38.166Z,4.91
2019-01-02T02:24:38.235Z,4.79
2019-01-02T02:25:38.208Z,4.83
2019-01-02T02:26:38.155Z,4.74
2019-01-02T02:27:38.336Z,4.80
2019-01-02T02:28:38.109Z,4.74
2019-01-02T02:29:38.155Z,4.84
2019-01-02T02:30:38.087Z,4.75
2019-01-02T02:31:38.258Z,4.79
2019-01-02T02:32:38.066Z,4.75
2019-01-02T02:33:38.062Z,4.80
2019-01-02T02:34:38.141Z,4.79
2019-01-02T02:35:38.072Z,4.71
2019-01-02T02:36:38.046Z,4.72
2019-01-02T02:37:38.019Z,4.75
2019-01-02T02:38:38.149Z,4.67
2019-01-02T02:39:38.039Z,4.71
2019-01-02T02:40:38.072Z,4.74
2019-01-02T02:41:38.002Z,4.71
2019-01-02T02:42:37.967Z,4.71
2019-01-02T02:43:38.104Z,4.69
2019-01-02T02:44:37.955Z,4.69
2019-01-02T02:45:37.935Z,4.71
2019-01-02T02:46:38.018Z,4.74
2019-01-02T02:47:37.909Z,4.72
2019-01-02T02:48:37.900Z,4.71
2019-01-02T02:49:37.889Z,4.80
2019-01-02T02:50:37.893Z,4.80
2019-01-02T02:51:37.975Z,4.77
2019-01-02T02:52:37.878Z,4.71
2019-01-02T02:53:37.851Z,4.74
2019-01-02T02:54:37.869Z,4.86
2019-01-02T02:55:37.837Z,4.83
2019-01-02T02:56:37.911Z,4.84
2019-01-02T02:57:37.837Z,4.75
2019-01-02T02:58:37.818Z,4.77
2019-01-02T02:59:37.790Z,4.72
2019-01-02T03:00:37.823Z,4.68
2019-01-02T03:01:37.832Z,4.75
2019-01-02T03:02:37.785Z,4.74
2019-01-02T03:03:37.748Z,4.69
2019-01-02T03:04:37.758Z,4.71
2019-01-02T03:05:37.777Z,4.59
2019-01-02T03:06:37.717Z,4.64
2019-01-02T03:07:37.737Z,4.67
2019-01-02T03:08:37.769Z,4.64
2019-01-02T03:09:37.827Z,4.67
2019-01-02T03:10:37.668Z,4.64
2019-01-02T03:11:37.676Z,4.57
2019-01-02T03:12:37.648Z,4.61
2019-01-02T03:13:37.748Z,4.62
2019-01-02T03:14:37.638Z,4.68
2019-01-02T03:15:37.620Z,4.62
2019-01-02T03:16:37.655Z,4.68
2019-01-02T03:17:37.626Z,4.71
2019-01-02T03:18:37.731Z,4.69
2019-01-02T03:19:37.683Z,4.56
2019-01-02T03:20:37.564Z,4.61
2019-01-02T03:21:37.570Z,4.68
2019-01-02T03:22:37.549Z,4.68
2019-01-02T03:23:37.580Z,4.69
2019-01-02T03:24:37.561Z,4.67
2019-01-02T03:25:37.517Z,4.74
2019-01-02T03:26:37.512Z,4.74
2019-01-02T03:27:37.489Z,4.74
2019-01-02T03:28:37.553Z,4.71
2019-01-02T03:29:37.471Z,4.71
2019-01-02T03:30:37.460Z,4.77
2019-01-02T03:31:37.564Z,4.77
2019-01-02T03:32:37.439Z,4.75
2019-01-02T03:33:37.429Z,4.75
2019-01-02T03:34:37.449Z,4.74
2019-01-02T03:35:37.481Z,4.71
2019-01-02T03:36:37.407Z,4.72
2019-01-02T03:37:37.429Z,4.71
2019-01-02T03:38:37.426Z,4.68
2019-01-02T03:39:37.392Z,4.68
2019-01-02T03:40:37.368Z,4.68
2019-01-02T03:41:37.377Z,4.65
2019-01-02T03:42:37.332Z,4.67
2019-01-02T03:43:37.357Z,4.68
2019-01-02T03:44:37.343Z,4.64
2019-01-02T03:45:37.359Z,4.62
2019-01-02T03:46:37.293Z,4.64
2019-01-02T03:47:37.409Z,4.68
2019-01-02T03:48:37.272Z,4.68
2019-01-02T03:49:37.277Z,4.68
2019-01-02T03:50:37.282Z,4.75
2019-01-02T03:51:37.449Z,4.75
2019-01-02T03:52:37.397Z,4.75
2019-01-02T03:53:37.219Z,4.72
2019-01-02T03:54:37.260Z,4.71
2019-01-02T03:55:37.224Z,4.75
2019-01-02T03:56:37.234Z,4.69
2019-01-02T03:57:37.177Z,4.74
2019-01-02T03:58:37.329Z,4.69
2019-01-02T03:59:37.167Z,4.83
2019-01-02T04:00:37.262Z,4.83
2019-01-02T04:01:37.176Z,4.74
2019-01-02T04:02:37.178Z,4.79
2019-01-02T04:03:37.113Z,4.86
2019-01-02T04:04:37.109Z,4.75
2019-01-02T04:05:37.180Z,4.83
2019-01-02T04:06:37.087Z,4.71
2019-01-02T04:07:37.144Z,4.77
2019-01-02T04:08:37.069Z,4.72
2019-01-02T04:09:37.072Z,4.65
2019-01-02T04:10:37.073Z,4.69
2019-01-02T04:11:37.059Z,4.71
2019-01-02T04:12:37.113Z,4.65
2019-01-02T04:13:37.016Z,4.57
2019-01-02T04:14:37.035Z,4.57
2019-01-02T04:15:36.989Z,4.62
2019-01-02T04:16:36.982Z,4.64
2019-01-02T04:17:37.056Z,4.71
2019-01-02T04:18:36.964Z,4.62
2019-01-02T04:19:36.951Z,4.67
2019-01-02T04:20:37.143Z,4.57
2019-01-02T04:21:36.964Z,4.71
2019-01-02T04:22:36.999Z,4.64
2019-01-02T04:23:36.902Z,4.64
2019-01-02T04:24:36.920Z,4.72
2019-01-02T04:25:36.885Z,4.62
2019-01-02T04:26:36.894Z,4.75
2019-01-02T04:27:36.902Z,4.86
2019-01-02T04:28:36.927Z,4.87
2019-01-02T04:29:36.856Z,4.97
2019-01-02T04:30:36.837Z,4.91
2019-01-02T04:31:36.819Z,5.04
2019-01-02T04:32:36.823Z,4.97
2019-01-02T04:33:36.820Z,4.99
2019-01-02T04:34:36.803Z,4.97
2019-01-02T04:35:36.832Z,4.97
2019-01-02T04:36:36.770Z,4.91
2019-01-02T04:37:36.805Z,4.94
2019-01-02T04:38:36.788Z,4.87
2019-01-02T04:39:36.760Z,4.84
2019-01-02T04:40:36.737Z,4.75
2019-01-02T04:41:36.717Z,4.77
2019-01-02T04:42:36.707Z,4.75
2019-01-02T04:43:36.765Z,4.86
2019-01-02T04:44:36.695Z,4.86
2019-01-02T04:45:36.745Z,4.88
2019-01-02T04:46:36.787Z,4.77
2019-01-02T04:47:36.650Z,4.72
2019-01-02T04:48:36.723Z,4.80
2019-01-02T04:49:36.633Z,4.80
2019-01-02T04:50:36.624Z,4.72
2019-01-02T04:51:36.730Z,4.71
2019-01-02T04:52:36.606Z,4.67
2019-01-02T04:53:36.605Z,4.80
2019-01-02T04:54:36.605Z,4.86
2019-01-02T04:55:36.577Z,4.77
2019-01-02T04:56:36.763Z,4.84
2019-01-02T04:57:36.549Z,4.84
2019-01-02T04:58:36.535Z,4.90
2019-01-02T04:59:36.569Z,4.91
2019-01-02T05:00:36.523Z,4.87
2019-01-02T05:01:36.536Z,4.94
2019-01-02T05:02:36.568Z,4.88
2019-01-02T05:03:36.505Z,4.87
2019-01-02T05:04:36.507Z,4.93
2019-01-02T05:05:36.464Z,4.97
2019-01-02T05:06:36.502Z,5.01
2019-01-02T05:07:36.464Z,4.96
2019-01-02T05:08:36.432Z,5.01
2019-01-02T05:09:36.490Z,4.94
2019-01-02T05:10:36.528Z,4.93
2019-01-02T05:11:36.398Z,4.96
2019-01-02T05:12:36.421Z,5.01
2019-01-02T05:13:36.398Z,5.02
2019-01-02T05:14:36.379Z,5.01
2019-01-02T05:15:36.388Z,4.99
2019-01-02T05:16:36.383Z,5.01
2019-01-02T05:17:36.331Z,5.02
2019-01-02T05:18:36.322Z,4.93
2019-01-02T05:19:36.323Z,4.94
2019-01-02T05:20:36.437Z,4.99
2019-01-02T05:21:36.300Z,4.90
2019-01-02T05:22:36.285Z,4.96
2019-01-02T05:23:36.351Z,5.04
2019-01-02T05:24:36.262Z,4.93
2019-01-02T05:25:36.365Z,5.01
2019-01-02T05:26:36.243Z,4.93
2019-01-02T05:27:36.241Z,4.97
2019-01-02T05:28:36.233Z,4.94
2019-01-02T05:29:36.303Z,4.90
2019-01-02T05:30:36.224Z,4.86
2019-01-02T05:31:36.190Z,4.91
2019-01-02T05:32:36.308Z,4.88
2019-01-02T05:33:36.166Z,4.87
2019-01-02T05:34:36.155Z,4.83
2019-01-02T05:35:36.189Z,4.86
2019-01-02T05:36:36.153Z,4.94
2019-01-02T05:37:36.135Z,4.88
2019-01-02T05:38:36.111Z,4.93
2019-01-02T05:39:36.177Z,4.87
2019-01-02T05:40:36.090Z,4.94
2019-01-02T05:41:36.128Z,4.80
2019-01-02T05:42:36.067Z,4.86
2019-01-02T05:43:36.055Z,4.86
2019-01-02T05:44:36.096Z,4.80
2019-01-02T05:45:36.046Z,4.88
2019-01-02T05:46:36.068Z,4.88
2019-01-02T05:47:36.019Z,4.88
2019-01-02T05:48:36.087Z,4.80
2019-01-02T05:49:36.181Z,4.84
2019-01-02T05:50:35.989Z,4.88
2019-01-02T05:51:35.981Z,4.93
2019-01-02T05:52:36.366Z,4.88
2019-01-02T05:53:35.952Z,4.88
2019-01-02T05:54:36.085Z,4.93
2019-01-02T05:55:35.929Z,4.93
2019-01-02T05:56:35.930Z,4.93
2019-01-02T05:57:35.967Z,4.88
2019-01-02T05:58:35.947Z,4.93
2019-01-02T05:59:35.912Z,4.97
2019-01-02T06:00:39.814Z,5.01
2019-01-02T06:01:35.909Z,5.01
2019-01-02T06:02:35.894Z,5.01
2019-01-02T06:03:35.835Z,4.94
2019-01-02T06:04:35.835Z,4.99
2019-01-02T06:05:35.866Z,4.97
2019-01-02T06:06:35.808Z,4.97
2019-01-02T06:07:36.087Z,4.91
2019-01-02T06:08:35.806Z,5.01
2019-01-02T06:09:35.787Z,4.93
2019-01-02T06:10:35.784Z,4.94
2019-01-02T06:11:35.756Z,4.91
2019-01-02T06:12:35.746Z,4.84
2019-01-02T06:13:35.951Z,4.87
2019-01-02T06:14:35.732Z,4.86
2019-01-02T06:15:35.714Z,4.84
2019-01-02T06:16:35.768Z,4.90
2019-01-02T06:17:35.687Z,4.91
2019-01-02T06:18:35.711Z,4.88
2019-01-02T06:19:35.683Z,4.86
2019-01-02T06:20:35.667Z,4.84
2019-01-02T06:21:35.651Z,4.77
2019-01-02T06:22:35.635Z,4.79
2019-01-02T06:23:35.641Z,4.77
2019-01-02T06:24:35.677Z,4.77
2019-01-02T06:25:35.616Z,4.75
2019-01-02T06:26:35.595Z,4.75
2019-01-02T06:27:35.817Z,4.72
2019-01-02T06:28:35.635Z,4.69
2019-01-02T06:29:35.584Z,4.67
2019-01-02T06:30:35.592Z,4.69
2019-01-02T06:31:35.540Z,4.68
2019-01-02T06:32:35.775Z,4.67
2019-01-02T06:33:35.564Z,4.65
2019-01-02T06:34:35.546Z,4.65
2019-01-02T06:35:35.515Z,4.71
2019-01-02T06:36:35.660Z,4.67
2019-01-02T06:37:35.534Z,4.68
2019-01-02T06:38:35.525Z,4.69
2019-01-02T06:39:35.454Z,4.65
2019-01-02T06:40:35.473Z,4.65
2019-01-02T06:41:35.431Z,4.61
2019-01-02T06:42:35.570Z,4.61
2019-01-02T06:43:35.425Z,4.62
2019-01-02T06:44:35.478Z,4.62
2019-01-02T06:45:35.387Z,4.54
2019-01-02T06:46:35.484Z,4.46
2019-01-02T06:47:35.446Z,4.46
2019-01-02T06:48:35.483Z,4.47
2019-01-02T06:49:35.345Z,4.47
2019-01-02T06:50:35.428Z,4.49
2019-01-02T06:51:35.377Z,4.43
2019-01-02T06:52:35.312Z,4.44
2019-01-02T06:53:35.317Z,4.49
2019-01-02T06:54:35.297Z,4.42
2019-01-02T06:55:35.355Z,4.49
2019-01-02T06:56:35.300Z,4.43
2019-01-02T06:57:35.271Z,4.36
2019-01-02T06:58:35.251Z,4.43
2019-01-02T06:59:35.307Z,4.38
2019-01-02T07:00:35.242Z,4.44
2019-01-02T07:01:35.224Z,4.35
2019-01-02T07:02:35.247Z,4.39
2019-01-02T07:03:35.452Z,4.47
2019-01-02T07:04:35.217Z,4.39
2019-01-02T07:05:35.182Z,4.49
2019-01-02T07:06:35.268Z,4.50
2019-01-02T07:07:35.228Z,4.54
2019-01-02T07:08:35.155Z,4.50
2019-01-02T07:09:35.153Z,4.49
2019-01-02T07:10:35.150Z,4.47
2019-01-02T07:11:35.163Z,4.44
2019-01-02T07:12:35.102Z,4.44
2019-01-02T07:13:35.116Z,4.49
2019-01-02T07:14:35.100Z,4.50
2019-01-02T07:15:35.146Z,4.50
2019-01-02T07:16:35.098Z,4.47
2019-01-02T07:17:35.056Z,4.49
2019-01-02T07:18:35.096Z,4.46
2019-01-02T07:19:35.064Z,4.53
2019-01-02T07:20:35.082Z,4.47
2019-01-02T07:21:35.028Z,4.47
2019-01-02T07:22:34.994Z,4.47
2019-01-02T07:23:35.027Z,4.46
2019-01-02T07:24:35.028Z,4.54
2019-01-02T07:25:34.976Z,4.46
2019-01-02T07:26:35.233Z,4.53
2019-01-02T07:27:34.985Z,4.46
2019-01-02T07:28:34.945Z,4.43
2019-01-02T07:29:34.960Z,4.50
2019-01-02T07:30:34.923Z,4.47
2019-01-02T07:31:34.902Z,4.49
2019-01-02T07:32:34.892Z,4.50
2019-01-02T07:33:34.906Z,4.42
2019-01-02T07:34:35.215Z,4.47
2019-01-02T07:35:34.871Z,4.49
2019-01-02T07:36:34.966Z,4.46
2019-01-02T07:37:34.839Z,4.49
2019-01-02T07:38:34.872Z,4.44
2019-01-02T07:39:34.828Z,4.44
2019-01-02T07:40:34.842Z,4.35
2019-01-02T07:41:34.795Z,4.39
2019-01-02T07:42:34.798Z,4.36
2019-01-02T07:43:34.858Z,4.29
2019-01-02T07:44:34.762Z,4.42
2019-01-02T07:45:34.780Z,4.32
2019-01-02T07:46:34.763Z,4.44
2019-01-02T07:47:34.732Z,4.47
2019-01-02T07:48:34.725Z,4.49
2019-01-02T07:49:34.720Z,4.44
2019-01-02T07:50:34.837Z,4.43
2019-01-02T07:51:34.809Z,4.47
2019-01-02T07:52:34.724Z,4.47
2019-01-02T07:53:34.689Z,4.44
2019-01-02T07:54:34.661Z,4.50
2019-01-02T07:55:34.645Z,4.34
2019-01-02T07:56:34.705Z,4.44
2019-01-02T07:57:34.710Z,4.32
2019-01-02T07:58:34.619Z,4.36
2019-01-02T07:59:34.703Z,4.29
2019-01-02T08:00:34.593Z,4.39
2019-01-02T08:01:34.802Z,4.29
2019-01-02T08:02:34.608Z,4.35
2019-01-02T08:03:34.870Z,4.38
2019-01-02T08:04:34.569Z,4.34
2019-01-02T08:05:34.587Z,4.32
2019-01-02T08:06:34.532Z,4.39
2019-01-02T08:07:34.550Z,4.26
2019-01-02T08:08:34.570Z,4.31
2019-01-02T08:09:34.751Z,4.28
2019-01-02T08:10:34.487Z,4.35
2019-01-02T08:11:34.478Z,4.32
2019-01-02T08:12:34.744Z,4.36
2019-01-02T08:13:34.538Z,4.32
2019-01-02T08:14:34.445Z,4.39
2019-01-02T08:15:34.437Z,4.53
2019-01-02T08:16:34.489Z,4.49
2019-01-02T08:17:34.412Z,4.36
2019-01-02T08:18:34.444Z,4.36
2019-01-02T08:19:34.406Z,4.47
2019-01-02T08:20:34.392Z,4.49
2019-01-02T08:21:34.370Z,4.50
2019-01-02T08:22:34.397Z,4.44
2019-01-02T08:23:34.366Z,4.47
2019-01-02T08:24:34.444Z,4.50
2019-01-02T08:25:34.333Z,4.51
2019-01-02T08:26:34.324Z,4.50
2019-01-02T08:27:34.326Z,4.57
2019-01-02T08:28:34.304Z,4.56
2019-01-02T08:29:34.529Z,4.51
2019-01-02T08:30:34.305Z,4.57
2019-01-02T08:31:34.337Z,4.56
2019-01-02T08:32:34.292Z,4.57
2019-01-02T08:33:34.487Z,4.64
2019-01-02T08:34:34.235Z,4.65
2019-01-02T08:35:34.332Z,4.65
2019-01-02T08:36:34.221Z,4.57
2019-01-02T08:37:34.203Z,4.59
2019-01-02T08:38:34.325Z,4.62
2019-01-02T08:39:34.190Z,4.71
2019-01-02T08:40:34.179Z,4.69
2019-01-02T08:41:34.188Z,4.68
2019-01-02T08:42:34.167Z,4.71
2019-01-02T08:43:34.144Z,4.68
2019-01-02T08:44:34.127Z,4.68
2019-01-02T08:45:34.176Z,4.75
2019-01-02T08:46:34.142Z,4.69
2019-01-02T08:47:34.106Z,4.72
2019-01-02T08:48:34.093Z,4.69
2019-01-02T08:49:34.152Z,4.72
2019-01-02T08:50:34.085Z,4.72
2019-01-02T08:51:34.126Z,4.77
2019-01-02T08:52:34.324Z,4.86
2019-01-02T08:53:34.056Z,4.80
2019-01-02T08:54:34.025Z,4.83
2019-01-02T08:55:34.182Z,4.80
2019-01-02T08:56:33.998Z,4.87
2019-01-02T08:57:34.081Z,4.91
2019-01-02T08:58:33.999Z,4.91
2019-01-02T08:59:34.072Z,4.87
2019-01-02T09:00:33.964Z,4.87
2019-01-02T09:01:33.959Z,4.94
2019-01-02T09:02:33.956Z,4.93
2019-01-02T09:03:33.984Z,4.97
2019-01-02T09:04:34.044Z,4.91
2019-01-02T09:05:34.049Z,4.96
2019-01-02T09:06:33.928Z,4.93
2019-01-02T09:07:34.127Z,4.97
2019-01-02T09:08:33.875Z,4.99
2019-01-02T09:09:33.995Z,4.99
2019-01-02T09:10:33.968Z,4.99
2019-01-02T09:11:33.848Z,5.11
2019-01-02T09:12:33.823Z,5.12
2019-01-02T09:13:33.818Z,5.11
2019-01-02T09:14:33.927Z,5.17
2019-01-02T09:15:33.869Z,5.12
2019-01-02T09:16:33.821Z,5.15
2019-01-02T09:17:33.850Z,5.08
2019-01-02T09:18:33.777Z,5.26
2019-01-02T09:19:33.749Z,5.27
2019-01-02T09:20:33.767Z,5.19
2019-01-02T09:21:33.729Z,5.23
2019-01-02T09:22:33.734Z,5.20
2019-01-02T09:23:33.831Z,5.20
2019-01-02T09:24:33.718Z,5.27
2019-01-02T09:25:33.718Z,5.22
2019-01-02T09:26:33.783Z,5.29
2019-01-02T09:27:33.668Z,5.35
2019-01-02T09:28:33.652Z,5.38
2019-01-02T09:29:33.712Z,5.32
2019-01-02T09:30:33.646Z,5.32
2019-01-02T09:31:33.644Z,5.37
2019-01-02T09:32:33.631Z,5.32
2019-01-02T09:33:33.772Z,5.38
2019-01-02T09:34:33.591Z,5.38
2019-01-02T09:35:33.674Z,5.44
2019-01-02T09:36:33.612Z,5.44
2019-01-02T09:37:33.594Z,5.45
2019-01-02T09:38:33.546Z,5.49
2019-01-02T09:39:33.537Z,5.58
2019-01-02T09:40:33.576Z,5.52
2019-01-02T09:41:33.537Z,5.58
2019-01-02T09:42:33.554Z,5.58
2019-01-02T09:43:33.787Z,5.52
2019-01-02T09:44:33.486Z,5.63
2019-01-02T09:45:33.479Z,5.65
2019-01-02T09:46:33.536Z,5.65
2019-01-02T09:47:33.479Z,5.69
2019-01-02T09:48:33.489Z,5.66
2019-01-02T09:49:33.428Z,5.65
2019-01-02T09:50:33.496Z,5.74
2019-01-02T09:51:33.418Z,5.78
2019-01-02T09:52:33.451Z,5.73
2019-01-02T09:53:33.400Z,5.80
2019-01-02T09:54:33.414Z,5.83
2019-01-02T09:55:33.426Z,5.78
2019-01-02T09:56:33.600Z,5.67
2019-01-02T09:57:33.371Z,5.74
2019-01-02T09:58:33.351Z,5.83
2019-01-02T09:59:33.322Z,5.80
2019-01-02T10:00:33.319Z,5.83
2019-01-02T10:01:33.303Z,5.88
2019-01-02T10:02:33.352Z,5.80
2019-01-02T10:03:33.308Z,5.83
2019-01-02T10:04:33.282Z,5.74
2019-01-02T10:05:33.347Z,5.70
2019-01-02T10:06:33.262Z,5.78
2019-01-02T10:07:33.320Z,5.75
2019-01-02T10:08:33.256Z,5.73
2019-01-02T10:09:33.221Z,5.73
2019-01-02T10:10:33.257Z,5.80
2019-01-02T10:11:33.227Z,5.83
2019-01-02T10:12:33.187Z,5.80
2019-01-02T10:13:33.204Z,5.83
2019-01-02T10:14:33.302Z,5.78
2019-01-02T10:15:33.153Z,5.83
2019-01-02T10:16:33.217Z,5.83
2019-01-02T10:17:33.131Z,5.84
2019-01-02T10:18:33.133Z,5.81
2019-01-02T10:19:33.141Z,5.81
2019-01-02T10:20:33.140Z,5.92
2019-01-02T10:21:33.143Z,5.95
2019-01-02T10:22:33.148Z,6.02
2019-01-02T10:23:33.072Z,6.10
2019-01-02T10:24:33.204Z,6.06
2019-01-02T10:25:33.057Z,6.05
2019-01-02T10:26:33.079Z,6.02
2019-01-02T10:27:33.037Z,6.08
2019-01-02T10:28:33.061Z,6.03
2019-01-02T10:29:33.042Z,5.96
2019-01-02T10:30:33.092Z,5.95
2019-01-02T10:31:32.988Z,5.95
2019-01-02T10:32:32.976Z,5.95
2019-01-02T10:33:32.977Z,6.08
2019-01-02T10:34:32.963Z,5.98
2019-01-02T10:35:32.970Z,5.90
2019-01-02T10:36:32.929Z,5.93
2019-01-02T10:37:32.921Z,6.02
2019-01-02T10:38:32.916Z,5.98
2019-01-02T10:39:32.907Z,5.93
2019-01-02T10:40:33.032Z,6.08
2019-01-02T10:41:33.065Z,6.11
2019-01-02T10:42:32.873Z,6.17
2019-01-02T10:43:32.962Z,6.27
2019-01-02T10:44:33.138Z,6.24
2019-01-02T10:45:32.843Z,6.21
2019-01-02T10:46:32.858Z,6.35
2019-01-02T10:47:33.719Z,6.20
2019-01-02T10:48:32.876Z,6.17
2019-01-02T10:49:32.794Z,6.16
2019-01-02T10:50:32.789Z,6.27
2019-01-02T10:51:32.835Z,6.28
2019-01-02T10:52:32.767Z,6.17
2019-01-02T10:53:32.886Z,6.20
2019-01-02T10:54:32.739Z,6.20
2019-01-02T10:55:32.728Z,6.14
2019-01-02T10:56:32.721Z,6.17
2019-01-02T10:57:32.846Z,6.05
2019-01-02T10:58:36.511Z,6.13
2019-01-02T10:59:32.687Z,6.05
2019-01-02T11:00:32.679Z,6.05
2019-01-02T11:01:32.755Z,6.05
2019-01-02T11:02:32.654Z,6.05
2019-01-02T11:03:32.669Z,6.02
2019-01-02T11:04:32.639Z,6.11
2019-01-02T11:05:32.628Z,6.10
2019-01-02T11:06:32.666Z,6.16
2019-01-02T11:07:32.696Z,6.03
2019-01-02T11:08:32.635Z,6.13
2019-01-02T11:09:32.587Z,6.11
2019-01-02T11:10:32.580Z,6.14
2019-01-02T11:11:32.561Z,6.08
2019-01-02T11:12:32.557Z,6.05
2019-01-02T11:13:32.684Z,6.06
2019-01-02T11:14:32.585Z,6.08
2019-01-02T11:15:32.538Z,6.11
2019-01-02T11:16:32.513Z,6.16
2019-01-02T11:17:32.773Z,6.16
2019-01-02T11:18:32.489Z,6.20
2019-01-02T11:19:32.480Z,6.14
2019-01-02T11:20:32.498Z,6.19
2019-01-02T11:21:32.531Z,6.21
2019-01-02T11:22:32.462Z,6.28
2019-01-02T11:23:32.465Z,6.36
2019-01-02T11:24:32.423Z,6.16
2019-01-02T11:25:32.422Z,6.19
2019-01-02T11:26:32.587Z,6.24
2019-01-02T11:27:32.491Z,6.14
2019-01-02T11:28:32.418Z,6.13
2019-01-02T11:29:32.366Z,6.20
2019-01-02T11:30:32.450Z,6.16
2019-01-02T11:31:32.378Z,6.14
2019-01-02T11:32:32.339Z,6.08
2019-01-02T11:33:32.342Z,6.08
2019-01-02T11:34:32.408Z,6.06
2019-01-02T11:35:32.334Z,6.08
2019-01-02T11:36:32.293Z,6.11
2019-01-02T11:37:32.363Z,6.20
2019-01-02T11:38:32.272Z,6.25
2019-01-02T11:39:32.263Z,6.20
2019-01-02T11:40:32.359Z,6.20
2019-01-02T11:41:32.243Z,6.13
2019-01-02T11:42:32.305Z,6.21
2019-01-02T11:43:32.272Z,6.17
2019-01-02T11:44:32.213Z,6.10
2019-01-02T11:45:32.262Z,6.02
2019-01-02T11:46:32.199Z,5.96
2019-01-02T11:47:32.188Z,6.01
2019-01-02T11:48:32.484Z,5.90
2019-01-02T11:49:32.163Z,5.98
2019-01-02T11:50:32.162Z,5.95
2019-01-02T11:51:32.265Z,5.90
2019-01-02T11:52:32.140Z,5.88
2019-01-02T11:53:32.147Z,5.88
2019-01-02T11:54:32.119Z,5.88
2019-01-02T11:55:32.129Z,5.90
2019-01-02T11:56:32.236Z,5.95
2019-01-02T11:57:32.201Z,5.98
2019-01-02T11:58:32.113Z,5.95
2019-01-02T11:59:32.093Z,5.98
2019-01-02T12:00:32.040Z,6.01
2019-01-02T12:01:32.029Z,5.93
2019-01-02T12:02:34.354Z,5.85
2019-01-02T12:03:32.062Z,5.99
2019-01-02T12:04:32.063Z,5.96
2019-01-02T12:05:31.994Z,5.99
2019-01-02T12:06:31.989Z,5.98
2019-01-02T12:07:31.968Z,6.02
2019-01-02T12:08:32.072Z,6.02
2019-01-02T12:09:31.955Z,5.95
2019-01-02T12:10:31.963Z,5.98
2019-01-02T12:11:31.937Z,6.02
2019-01-02T12:12:31.926Z,6.08
2019-01-02T12:13:32.013Z,6.14
2019-01-02T12:14:31.896Z,6.11
2019-01-02T12:15:31.996Z,6.13
2019-01-02T12:16:31.870Z,6.05
2019-01-02T12:17:31.863Z,6.08
2019-01-02T12:18:32.070Z,6.08
2019-01-02T12:19:31.839Z,6.03
2019-01-02T12:20:31.876Z,6.03
2019-01-02T12:21:31.819Z,6.03
2019-01-02T12:22:31.817Z,6.03
2019-01-02T12:23:31.808Z,6.02
2019-01-02T12:24:31.860Z,6.03
2019-01-02T12:25:31.825Z,6.02
2019-01-02T12:26:31.806Z,6.08
2019-01-02T12:27:31.780Z,6.05
2019-01-02T12:28:31.751Z,6.05
2019-01-02T12:29:31.761Z,6.11
2019-01-02T12:30:31.722Z,6.21
2019-01-02T12:31:32.028Z,6.20
2019-01-02T12:32:31.731Z,6.14
2019-01-02T12:33:31.706Z,6.27
2019-01-02T12:34:31.692Z,6.35
2019-01-02T12:35:31.694Z,6.40
2019-01-02T12:36:31.666Z,6.53
2019-01-02T12:37:31.943Z,6.51
2019-01-02T12:38:31.649Z,6.55
2019-01-02T12:39:31.634Z,6.54
2019-01-02T12:40:31.662Z,6.60
2019-01-02T12:41:31.621Z,6.60
2019-01-02T12:42:31.700Z,6.60
2019-01-02T12:43:31.620Z,6.63
2019-01-02T12:44:31.582Z,6.71
2019-01-02T12:45:31.585Z,6.71
2019-01-02T12:46:31.575Z,6.78
2019-01-02T12:47:31.633Z,6.87
2019-01-02T12:48:31.582Z,6.87
2019-01-02T12:49:31.602Z,6.93
2019-01-02T12:50:31.723Z,6.94
2019-01-02T12:51:31.507Z,7.00
2019-01-02T12:52:31.503Z,7.05
2019-01-02T12:53:31.484Z,6.79
2019-01-02T12:54:31.551Z,6.82
2019-01-02T12:55:31.505Z,6.75
2019-01-02T12:56:31.458Z,6.68
2019-01-02T12:57:31.475Z,6.61
2019-01-02T12:58:31.515Z,6.55
2019-01-02T12:59:31.473Z,6.57
2019-01-02T13:00:31.425Z,6.60
2019-01-02T13:01:31.555Z,6.61
2019-01-02T13:02:31.388Z,6.63
2019-01-02T13:03:31.400Z,6.54
2019-01-02T13:04:31.428Z,6.43
2019-01-02T13:05:31.386Z,6.53
2019-01-02T13:06:31.365Z,6.54
2019-01-02T13:07:31.355Z,7.21
2019-01-02T13:08:31.336Z,7.54
2019-01-02T13:09:31.338Z,7.37
2019-01-02T13:10:31.322Z,7.69
2019-01-02T13:11:31.540Z,8.20
2019-01-02T13:12:31.529Z,7.66
2019-01-02T13:13:31.271Z,7.39
2019-01-02T13:14:31.278Z,7.14
2019-01-02T13:15:31.284Z,6.87
2019-01-02T13:16:31.302Z,6.76
2019-01-02T13:17:31.225Z,6.64
2019-01-02T13:18:31.353Z,6.63